| time (UTC) | temp F | wind direction | speed knots | gust knots | rain 1hr in | rain 24hr in | rain mn in | humidity % | barometer mb |
| 20260502152051 | 53 | 360 | 1.7 | 5.2 | 0.00 | 0.00 | 0.00 | 42 | 1021.8 |
| 20260502151617 | 53 | 255 | 0.9 | 4.3 | 0.00 | 0.00 | 0.00 | 44 | 1021.8 |
| 20260502151051 | 53 | 263 | 0.9 | 2.6 | 0.00 | 0.00 | 0.00 | 42 | 1021.8 |
| 20260502150551 | 52 | 198 | 0.0 | 4.3 | 0.00 | 0.00 | 0.00 | 41 | 1021.8 |
| 20260502150105 | 52 | 263 | 0.9 | 4.3 | 0.00 | 0.00 | 0.00 | 44 | 1021.9 |
| 20260502130553 | 42 | 0 | 0.0 | 1.7 | 0.00 | 0.00 | 0.00 | 60 | 1022.1 |
| 20260502123553 | 39 | 0 | 0.0 | 0.0 | 0.00 | 0.00 | 0.00 | 58 | 1022.0 |
| 20260502123103 | 39 | 0 | 0.0 | 0.0 | 0.00 | 0.00 | 0.00 | 59 | 1022.0 |
| 20260502122553 | 39 | 0 | 0.0 | 0.0 | 0.00 | 0.00 | 0.00 | 60 | 1021.9 |
| 20260502122052 | 38 | 0 | 0.0 | 0.0 | 0.00 | 0.00 | 0.00 | 60 | 1021.9 |
| 20260502121555 | 38 | 0 | 0.0 | 0.0 | 0.00 | 0.00 | 0.00 | 59 | 1021.9 |
| 20260502121052 | 38 | 0 | 0.0 | 0.0 | 0.00 | 0.00 | 0.00 | 60 | 1021.9 |
| 20260502120549 | 38 | 0 | 0.0 | 0.0 | 0.00 | 0.00 | 0.00 | 59 | 1021.9 |
| 20260502115551 | 38 | 0 | 0.0 | 0.0 | 0.00 | 0.00 | 0.00 | 60 | 1021.9 |
| 20260502115053 | 38 | 0 | 0.0 | 0.0 | 0.00 | 0.00 | 0.00 | 59 | 1021.8 |
| 20260502114551 | 38 | 0 | 0.0 | 0.0 | 0.00 | 0.00 | 0.00 | 59 | 1021.9 |
| 20260502114053 | 38 | 0 | 0.0 | 0.0 | 0.00 | 0.00 | 0.00 | 59 | 1021.9 |
| 20260502113554 | 38 | 0 | 0.0 | 0.0 | 0.00 | 0.00 | 0.00 | 58 | 1021.8 |
| 20260502113053 | 38 | 0 | 0.0 | 0.0 | 0.00 | 0.00 | 0.00 | 58 | 1021.8 |
| 20260502112553 | 39 | 0 | 0.0 | 0.0 | 0.00 | 0.00 | 0.00 | 58 | 1021.9 |
| 20260502112052 | 39 | 0 | 0.0 | 0.0 | 0.00 | 0.00 | 0.00 | 58 | 1021.9 |
| 20260502111556 | 39 | 0 | 0.0 | 0.0 | 0.00 | 0.00 | 0.00 | 58 | 1021.8 |
| 20260502111052 | 39 | 0 | 0.0 | 0.0 | 0.00 | 0.00 | 0.00 | 57 | 1021.8 |
| 20260502110549 | 39 | 0 | 0.0 | 0.0 | 0.00 | 0.00 | 0.00 | 57 | 1021.7 |
| 20260502110058 | 39 | 0 | 0.0 | 0.0 | 0.00 | 0.00 | 0.00 | 57 | 1021.8 |
| 20260502105556 | 39 | 0 | 0.0 | 0.0 | 0.00 | 0.00 | 0.00 | 57 | 1021.7 |
| 20260502105053 | 39 | 0 | 0.0 | 0.0 | 0.00 | 0.00 | 0.00 | 56 | 1021.7 |
| 20260502104552 | 39 | 0 | 0.0 | 0.0 | 0.00 | 0.00 | 0.00 | 56 | 1021.8 |
| 20260502104053 | 39 | 0 | 0.0 | 0.0 | 0.00 | 0.00 | 0.00 | 56 | 1021.8 |
| 20260502103552 | 39 | 0 | 0.0 | 0.0 | 0.00 | 0.00 | 0.00 | 56 | 1021.8 |
| 20260502103058 | 39 | 0 | 0.0 | 0.0 | 0.00 | 0.00 | 0.00 | 56 | 1021.7 |
| 20260502102552 | 39 | 0 | 0.0 | 0.0 | 0.00 | 0.00 | 0.00 | 56 | 1021.6 |
| 20260502102051 | 39 | 0 | 0.0 | 0.0 | 0.00 | 0.00 | 0.00 | 56 | 1021.7 |
| 20260502101626 | 39 | 0 | 0.0 | 0.0 | 0.00 | 0.00 | 0.00 | 56 | 1021.7 |
| 20260502101053 | 39 | 0 | 0.0 | 0.0 | 0.00 | 0.00 | 0.00 | 56 | 1021.7 |
| 20260502100554 | 39 | 0 | 0.0 | 0.0 | 0.00 | 0.00 | 0.00 | 56 | 1021.7 |
| 20260502100118 | 40 | 0 | 0.0 | 0.0 | 0.00 | 0.00 | 0.00 | 55 | 1021.7 |
| 20260502091051 | 39 | 0 | 0.0 | 0.0 | 0.00 | 0.00 | 0.00 | 59 | 1021.6 |
| 20260502090552 | 39 | 0 | 0.0 | 0.0 | 0.00 | 0.00 | 0.00 | 57 | 1021.6 |
| 20260502080106 | 40 | 0 | 0.0 | 0.0 | 0.00 | 0.00 | 0.00 | 57 | 1021.6 |
| 20260502071052 | 40 | 0 | 0.0 | 0.0 | 0.00 | 0.00 | 0.00 | 56 | 1021.6 |
| 20260502070553 | 40 | 0 | 0.0 | 0.0 | 0.00 | 0.00 | 0.00 | 56 | 1021.7 |
| 20260502070057 | 40 | 0 | 0.0 | 0.0 | 0.00 | 0.00 | 0.00 | 57 | 1021.7 |
| 20260502065550 | 41 | 0 | 0.0 | 0.0 | 0.00 | 0.00 | 0.00 | 56 | 1021.7 |
| 20260502065049 | 41 | 0 | 0.0 | 0.0 | 0.00 | 0.00 | 0.00 | 57 | 1021.8 |
| 20260502064558 | 41 | 0 | 0.0 | 0.0 | 0.00 | 0.00 | 0.00 | 57 | 1021.7 |
| 20260502064049 | 41 | 0 | 0.0 | 0.0 | 0.00 | 0.00 | 0.00 | 57 | 1021.8 |
| 20260502063552 | 41 | 0 | 0.0 | 0.0 | 0.00 | 0.00 | 0.00 | 56 | 1021.8 |
| 20260502063053 | 41 | 0 | 0.0 | 0.0 | 0.00 | 0.00 | 0.00 | 54 | 1021.8 |
| 20260502062553 | 41 | 0 | 0.0 | 0.0 | 0.00 | 0.00 | 0.00 | 55 | 1021.8 |
| 20260502062052 | 41 | 0 | 0.0 | 0.0 | 0.00 | 0.00 | 0.00 | 55 | 1021.8 |
| 20260502061554 | 41 | 0 | 0.0 | 0.0 | 0.00 | 0.00 | 0.00 | 54 | 1021.8 |
| 20260502061049 | 42 | 0 | 0.0 | 0.0 | 0.00 | 0.00 | 0.00 | 54 | 1021.7 |
| 20260502060552 | 42 | 0 | 0.0 | 0.0 | 0.00 | 0.00 | 0.00 | 54 | 1021.8 |
| 20260502060057 | 42 | 0 | 0.0 | 0.0 | 0.00 | 0.00 | 0.00 | 54 | 1021.8 |
| 20260502055550 | 42 | 0 | 0.0 | 0.0 | 0.00 | 0.00 | 0.00 | 53 | 1021.8 |
| 20260502055052 | 42 | 0 | 0.0 | 0.0 | 0.00 | 0.00 | 0.00 | 54 | 1021.7 |
| 20260502054559 | 42 | 0 | 0.0 | 0.0 | 0.00 | 0.00 | 0.00 | 54 | 1021.7 |
| 20260502054051 | 42 | 0 | 0.0 | 0.0 | 0.00 | 0.00 | 0.00 | 54 | 1021.7 |
| 20260502053551 | 42 | 0 | 0.0 | 0.9 | 0.00 | 0.00 | 0.00 | 53 | 1021.7 |
| 20260502053111 | 42 | 0 | 0.0 | 0.9 | 0.00 | 0.00 | 0.00 | 53 | 1021.6 |
| 20260502052551 | 42 | 0 | 0.0 | 0.9 | 0.00 | 0.00 | 0.00 | 53 | 1021.6 |
| 20260502052051 | 42 | 0 | 0.0 | 0.0 | 0.00 | 0.00 | 0.00 | 53 | 1021.6 |
| 20260502051552 | 42 | 0 | 0.0 | 0.0 | 0.00 | 0.00 | 0.00 | 52 | 1021.5 |
| 20260502051050 | 42 | 0 | 0.0 | 0.0 | 0.00 | 0.00 | 0.00 | 53 | 1021.4 |
| 20260502050552 | 42 | 0 | 0.0 | 0.0 | 0.00 | 0.00 | 0.00 | 53 | 1021.5 |
| 20260502050054 | 42 | 0 | 0.0 | 0.0 | 0.00 | 0.00 | 0.00 | 53 | 1021.4 |
| 20260502045552 | 42 | 0 | 0.0 | 0.0 | 0.00 | 0.00 | 0.00 | 54 | 1021.3 |
| 20260502045051 | 42 | 0 | 0.0 | 0.0 | 0.00 | 0.00 | 0.00 | 55 | 1021.4 |
| 20260502044555 | 42 | 0 | 0.0 | 0.0 | 0.00 | 0.00 | 0.00 | 54 | 1021.2 |
| 20260502044051 | 42 | 0 | 0.0 | 0.0 | 0.00 | 0.00 | 0.00 | 53 | 1021.2 |
| 20260502043551 | 43 | 0 | 0.0 | 0.0 | 0.00 | 0.00 | 0.00 | 53 | 1021.2 |
| 20260502043107 | 43 | 0 | 0.0 | 0.0 | 0.00 | 0.00 | 0.00 | 54 | 1021.2 |
| 20260502042551 | 43 | 0 | 0.0 | 0.0 | 0.00 | 0.00 | 0.00 | 53 | 1021.1 |
| 20260502042050 | 43 | 0 | 0.0 | 0.0 | 0.00 | 0.00 | 0.00 | 52 | 1021.1 |
| 20260502041554 | 43 | 0 | 0.0 | 0.0 | 0.00 | 0.00 | 0.00 | 52 | 1021.1 |
| 20260502041053 | 43 | 0 | 0.0 | 0.0 | 0.00 | 0.00 | 0.00 | 52 | 1021.1 |
| 20260502040553 | 43 | 0 | 0.0 | 0.9 | 0.00 | 0.00 | 0.00 | 51 | 1021.0 |
| 20260502040057 | 43 | 0 | 0.0 | 0.9 | 0.00 | 0.00 | 0.00 | 50 | 1021.0 |
| 20260502035552 | 43 | 0 | 0.0 | 0.9 | 0.00 | 0.00 | 0.00 | 53 | 1021.0 |
| 20260502035059 | 43 | 0 | 0.0 | 0.0 | 0.00 | 0.00 | 0.00 | 50 | 1021.0 |
| 20260502034557 | 43 | 0 | 0.0 | 0.0 | 0.00 | 0.00 | 0.00 | 48 | 1021.0 |
| 20260502034052 | 44 | 0 | 0.0 | 0.0 | 0.00 | 0.00 | 0.00 | 48 | 1021.1 |
| 20260502033553 | 44 | 0 | 0.0 | 0.0 | 0.00 | 0.00 | 0.00 | 49 | 1021.0 |
| 20260502033104 | 44 | 0 | 0.0 | 0.0 | 0.00 | 0.00 | 0.00 | 50 | 1021.0 |
| 20260502032551 | 44 | 0 | 0.0 | 0.0 | 0.00 | 0.00 | 0.00 | 49 | 1021.0 |
| 20260502032052 | 44 | 0 | 0.0 | 0.0 | 0.00 | 0.00 | 0.00 | 48 | 1021.0 |
| 20260502031553 | 45 | 0 | 0.0 | 0.0 | 0.00 | 0.00 | 0.00 | 48 | 1020.9 |
| 20260502031051 | 45 | 0 | 0.0 | 0.0 | 0.00 | 0.00 | 0.00 | 48 | 1021.0 |
| 20260502030551 | 45 | 0 | 0.0 | 0.0 | 0.00 | 0.00 | 0.00 | 47 | 1020.9 |
| 20260502030100 | 45 | 0 | 0.0 | 0.0 | 0.00 | 0.00 | 0.00 | 48 | 1020.9 |
| 20260502025552 | 45 | 0 | 0.0 | 0.9 | 0.00 | 0.00 | 0.00 | 46 | 1020.9 |
| 20260502025052 | 45 | 0 | 0.0 | 0.9 | 0.00 | 0.00 | 0.00 | 46 | 1020.8 |
| 20260502024554 | 46 | 0 | 0.0 | 0.9 | 0.00 | 0.00 | 0.00 | 47 | 1020.7 |
| 20260502024052 | 46 | 0 | 0.0 | 0.0 | 0.00 | 0.00 | 0.00 | 45 | 1020.7 |
| 20260502023553 | 46 | 0 | 0.0 | 0.0 | 0.00 | 0.00 | 0.00 | 47 | 1020.5 |
| 20260502023112 | 46 | 0 | 0.0 | 0.0 | 0.00 | 0.00 | 0.00 | 46 | 1020.5 |
| 20260502022550 | 46 | 0 | 0.0 | 0.0 | 0.00 | 0.00 | 0.00 | 46 | 1020.5 |
| 20260502022051 | 46 | 0 | 0.0 | 0.0 | 0.00 | 0.00 | 0.00 | 46 | 1020.5 |
| 20260502021559 | 47 | 0 | 0.0 | 0.9 | 0.00 | 0.00 | 0.00 | 45 | 1020.5 |
| 20260502021055 | 47 | 0 | 0.0 | 0.9 | 0.00 | 0.00 | 0.00 | 46 | 1020.4 |
| 20260502020550 | 47 | 26 | 0.0 | 0.0 | 0.00 | 0.00 | 0.00 | 45 | 1020.4 |
| 20260502015549 | 48 | 0 | 0.0 | 0.0 | 0.00 | 0.00 | 0.00 | 42 | 1020.1 |
| 20260502015051 | 48 | 0 | 0.0 | 0.0 | 0.00 | 0.00 | 0.00 | 42 | 1020.1 |
| 20260502014555 | 48 | 0 | 0.0 | 0.0 | 0.00 | 0.00 | 0.00 | 42 | 1020.0 |
| 20260502014053 | 49 | 0 | 0.0 | 0.0 | 0.00 | 0.00 | 0.00 | 42 | 1020.0 |
| 20260502013552 | 49 | 0 | 0.0 | 0.0 | 0.00 | 0.00 | 0.00 | 42 | 1019.9 |
| 20260502013054 | 49 | 0 | 0.0 | 0.0 | 0.00 | 0.00 | 0.00 | 42 | 1020.0 |
| 20260502012550 | 50 | 0 | 0.0 | 0.0 | 0.00 | 0.00 | 0.00 | 41 | 1020.0 |
| 20260502012049 | 50 | 0 | 0.0 | 2.6 | 0.00 | 0.00 | 0.00 | 42 | 1019.9 |
| 20260502011605 | 50 | 0 | 0.0 | 2.6 | 0.00 | 0.00 | 0.00 | 41 | 1020.0 |
| 20260502011050 | 50 | 0 | 0.0 | 2.6 | 0.00 | 0.00 | 0.00 | 40 | 1020.0 |
| 20260502010554 | 50 | 0 | 0.0 | 0.9 | 0.00 | 0.00 | 0.00 | 42 | 1019.9 |
| 20260502010056 | 50 | 0 | 0.0 | 0.9 | 0.00 | 0.00 | 0.00 | 42 | 1019.9 |
| 20260502005550 | 51 | 0 | 0.0 | 2.6 | 0.00 | 0.00 | 0.00 | 41 | 1019.9 |
| 20260502005053 | 51 | 0 | 0.0 | 3.5 | 0.00 | 0.00 | 0.00 | 43 | 1019.8 |
| 20260502004611 | 51 | 17 | 0.0 | 3.5 | 0.00 | 0.00 | 0.00 | 41 | 1019.9 |
| 20260502004049 | 52 | 0 | 0.0 | 1.7 | 0.00 | 0.00 | 0.00 | 40 | 1019.7 |
| 20260502003549 | 52 | 0 | 0.0 | 1.7 | 0.00 | 0.00 | 0.00 | 39 | 1019.7 |
| 20260502003052 | 52 | 0 | 0.0 | 2.6 | 0.00 | 0.00 | 0.00 | 37 | 1019.7 |
| 20260502002549 | 52 | 0 | 0.0 | 2.6 | 0.00 | 0.00 | 0.00 | 39 | 1019.6 |
| 20260502002051 | 53 | 30 | 0.0 | 3.5 | 0.00 | 0.00 | 0.00 | 40 | 1019.5 |
| 20260502001555 | 53 | 0 | 0.9 | 3.5 | 0.00 | 0.00 | 0.00 | 36 | 1019.5 |
| 20260502001049 | 53 | 0 | 0.9 | 2.6 | 0.00 | 0.00 | 0.00 | 39 | 1019.4 |
| 20260502000549 | 53 | 0 | 0.0 | 2.6 | 0.00 | 0.00 | 0.00 | 37 | 1019.5 |
| 20260502000054 | 53 | 117 | 0.0 | 5.2 | 0.00 | 0.00 | 0.00 | 38 | 1019.4 |
| 20260501235550 | 53 | 0 | 0.9 | 5.2 | 0.00 | 0.00 | 0.00 | 36 | 1019.4 |
| 20260501235050 | 54 | 360 | 0.9 | 3.5 | 0.00 | 0.00 | 0.00 | 35 | 1019.3 |
| 20260501234557 | 54 | 62 | 0.9 | 5.2 | 0.00 | 0.00 | 0.00 | 36 | 1019.3 |
| 20260501234050 | 54 | 73 | 0.9 | 5.2 | 0.00 | 0.00 | 0.00 | 36 | 1019.3 |
| 20260501233551 | 55 | 65 | 0.9 | 4.3 | 0.00 | 0.00 | 0.00 | 36 | 1019.4 |
| 20260501233053 | 55 | 26 | 1.7 | 4.3 | 0.00 | 0.00 | 0.00 | 32 | 1019.4 |
| 20260501232549 | 55 | 34 | 0.9 | 5.2 | 0.00 | 0.00 | 0.00 | 34 | 1019.3 |
| 20260501232057 | 55 | 344 | 0.9 | 5.2 | 0.00 | 0.00 | 0.00 | 33 | 1019.4 |
| 20260501231603 | 55 | 29 | 0.9 | 3.5 | 0.00 | 0.00 | 0.00 | 33 | 1019.3 |
| 20260501231051 | 55 | 0 | 0.9 | 5.2 | 0.00 | 0.00 | 0.00 | 34 | 1019.3 |
| 20260501230550 | 55 | 86 | 0.9 | 5.2 | 0.00 | 0.00 | 0.00 | 35 | 1019.2 |
| 20260501230057 | 55 | 42 | 0.9 | 5.2 | 0.00 | 0.00 | 0.00 | 34 | 1019.2 |
| 20260501225551 | 55 | 11 | 0.9 | 5.2 | 0.00 | 0.00 | 0.00 | 35 | 1019.1 |
| 20260501225051 | 55 | 51 | 1.7 | 5.2 | 0.00 | 0.00 | 0.00 | 34 | 1019.2 |
| 20260501224600 | 55 | 269 | 1.7 | 5.2 | 0.00 | 0.00 | 0.00 | 33 | 1019.3 |
| 20260501224050 | 56 | 34 | 0.9 | 5.2 | 0.00 | 0.00 | 0.00 | 34 | 1019.3 |
| 20260501223551 | 56 | 0 | 1.7 | 5.2 | 0.00 | 0.00 | 0.00 | 32 | 1019.3 |
| 20260501223112 | 56 | 347 | 1.7 | 5.2 | 0.00 | 0.00 | 0.00 | 31 | 1019.3 |
| 20260501222550 | 56 | 258 | 1.7 | 4.3 | 0.00 | 0.00 | 0.00 | 32 | 1019.3 |
| 20260501222050 | 57 | 298 | 1.7 | 4.3 | 0.00 | 0.00 | 0.00 | 32 | 1019.4 |
| 20260501221558 | 57 | 292 | 0.9 | 4.3 | 0.00 | 0.00 | 0.00 | 32 | 1019.3 |
| 20260501221049 | 57 | 11 | 1.7 | 4.3 | 0.00 | 0.00 | 0.00 | 32 | 1019.3 |
| 20260501220550 | 57 | 349 | 0.9 | 4.3 | 0.00 | 0.00 | 0.00 | 31 | 1019.4 |
| 20260501220058 | 57 | 32 | 1.7 | 4.3 | 0.00 | 0.00 | 0.00 | 30 | 1019.3 |
| 20260501215550 | 57 | 360 | 1.7 | 4.3 | 0.00 | 0.00 | 0.00 | 29 | 1019.3 |
| 20260501215051 | 58 | 341 | 1.7 | 4.3 | 0.00 | 0.00 | 0.00 | 30 | 1019.2 |
| 20260501214559 | 57 | 332 | 0.9 | 7.0 | 0.00 | 0.00 | 0.00 | 31 | 1019.3 |
| 20260501214051 | 57 | 58 | 1.7 | 7.0 | 0.00 | 0.00 | 0.00 | 32 | 1019.3 |
| 20260501213550 | 57 | 329 | 1.7 | 4.3 | 0.00 | 0.00 | 0.00 | 33 | 1019.3 |
| 20260501213111 | 57 | 337 | 0.9 | 4.3 | 0.00 | 0.00 | 0.00 | 34 | 1019.3 |
| 20260501212550 | 56 | 340 | 0.9 | 4.3 | 0.00 | 0.00 | 0.00 | 34 | 1019.4 |
| 20260501212050 | 56 | 51 | 1.7 | 4.3 | 0.00 | 0.00 | 0.00 | 34 | 1019.3 |
| 20260501211557 | 56 | 0 | 1.7 | 5.2 | 0.00 | 0.00 | 0.00 | 34 | 1019.3 |
| 20260501211049 | 56 | 300 | 1.7 | 5.2 | 0.00 | 0.00 | 0.00 | 33 | 1019.3 |
| 20260501210550 | 55 | 271 | 1.7 | 12.2 | 0.00 | 0.00 | 0.00 | 35 | 1019.5 |
| 20260501210057 | 55 | 360 | 2.6 | 12.2 | 0.00 | 0.00 | 0.00 | 32 | 1019.5 |
| 20260501205552 | 55 | 211 | 1.7 | 4.3 | 0.00 | 0.00 | 0.00 | 35 | 1019.4 |
| 20260501205051 | 55 | 98 | 0.9 | 4.3 | 0.00 | 0.00 | 0.00 | 36 | 1019.6 |
| 20260501204600 | 56 | 360 | 2.6 | 4.3 | 0.00 | 0.00 | 0.00 | 32 | 1019.7 |
| 20260501204050 | 56 | 347 | 1.7 | 4.3 | 0.00 | 0.00 | 0.00 | 35 | 1019.6 |
| 20260501203550 | 55 | 284 | 0.0 | 4.3 | 0.00 | 0.00 | 0.00 | 38 | 1019.6 |
| 20260501203103 | 55 | 360 | 0.9 | 4.3 | 0.00 | 0.00 | 0.00 | 34 | 1019.7 |
| 20260501202549 | 55 | 360 | 0.9 | 4.3 | 0.00 | 0.00 | 0.00 | 36 | 1019.8 |
| 20260501202050 | 55 | 32 | 0.9 | 3.5 | 0.00 | 0.00 | 0.00 | 36 | 1019.9 |
| 20260501201606 | 55 | 59 | 0.9 | 7.0 | 0.00 | 0.00 | 0.00 | 37 | 1019.8 |
| 20260501201053 | 54 | 34 | 1.7 | 7.0 | 0.00 | 0.00 | 0.00 | 37 | 1019.9 |
| 20260501200551 | 54 | 146 | 1.7 | 7.0 | 0.00 | 0.00 | 0.00 | 36 | 1019.9 |
| 20260501200051 | 55 | 78 | 1.7 | 5.2 | 0.00 | 0.00 | 0.00 | 35 | 1020.0 |
| 20260501195551 | 56 | 329 | 0.9 | 5.2 | 0.00 | 0.00 | 0.00 | 34 | 1019.8 |
| 20260501195052 | 56 | 79 | 1.7 | 6.1 | 0.00 | 0.00 | 0.00 | 33 | 1019.9 |
| 20260501194556 | 56 | 81 | 1.7 | 6.1 | 0.00 | 0.00 | 0.00 | 34 | 1019.7 |
| 20260501194050 | 56 | 360 | 1.7 | 6.1 | 0.00 | 0.00 | 0.00 | 34 | 1019.8 |
| 20260501193554 | 56 | 309 | 1.7 | 7.0 | 0.00 | 0.00 | 0.00 | 35 | 1019.8 |
| 20260501193057 | 56 | 329 | 0.9 | 7.0 | 0.00 | 0.00 | 0.00 | 33 | 1019.8 |
| 20260501192550 | 56 | 360 | 1.7 | 5.2 | 0.00 | 0.00 | 0.00 | 35 | 1019.7 |
| 20260501192050 | 56 | 360 | 0.9 | 5.2 | 0.00 | 0.00 | 0.00 | 35 | 1019.7 |
| 20260501191554 | 56 | 294 | 1.7 | 5.2 | 0.00 | 0.00 | 0.00 | 35 | 1019.8 |
| 20260501191050 | 55 | 0 | 1.7 | 5.2 | 0.00 | 0.00 | 0.00 | 35 | 1019.8 |
| 20260501190550 | 55 | 227 | 1.7 | 5.2 | 0.00 | 0.00 | 0.00 | 35 | 1019.8 |
| 20260501190054 | 55 | 254 | 0.9 | 4.3 | 0.00 | 0.00 | 0.00 | 36 | 1019.8 |
| 20260501185551 | 55 | 360 | 1.7 | 4.3 | 0.00 | 0.00 | 0.00 | 35 | 1019.8 |
| 20260501185050 | 55 | 360 | 0.9 | 4.3 | 0.00 | 0.00 | 0.00 | 37 | 1019.7 |
| 20260501184607 | 55 | 292 | 0.9 | 7.0 | 0.00 | 0.00 | 0.00 | 41 | 1019.7 |
| 20260501184054 | 54 | 0 | 0.9 | 7.8 | 0.00 | 0.00 | 0.00 | 37 | 1019.8 |
| 20260501183549 | 55 | 344 | 1.7 | 7.8 | 0.00 | 0.00 | 0.00 | 38 | 1019.9 |
| 20260501183058 | 54 | 226 | 1.7 | 5.2 | 0.00 | 0.00 | 0.00 | 38 | 1019.6 |
| 20260501182551 | 54 | 360 | 1.7 | 7.0 | 0.00 | 0.00 | 0.00 | 41 | 1019.8 |
| 20260501182050 | 54 | 30 | 1.7 | 7.8 | 0.00 | 0.00 | 0.00 | 37 | 1019.7 |
| 20260501181554 | 55 | 336 | 1.7 | 7.8 | 0.00 | 0.00 | 0.00 | 38 | 1019.6 |
| 20260501181050 | 55 | 44 | 1.7 | 4.3 | 0.00 | 0.00 | 0.00 | 40 | 1019.8 |
| 20260501180551 | 55 | 54 | 1.7 | 5.2 | 0.00 | 0.00 | 0.00 | 41 | 1019.8 |
| 20260501180055 | 55 | 347 | 1.7 | 5.2 | 0.00 | 0.00 | 0.00 | 42 | 1019.7 |
| 20260501175552 | 54 | 69 | 1.7 | 6.1 | 0.00 | 0.00 | 0.00 | 42 | 1019.7 |
| 20260501175052 | 54 | 63 | 0.9 | 6.1 | 0.00 | 0.00 | 0.00 | 42 | 1019.7 |
| 20260501174554 | 53 | 324 | 1.7 | 7.0 | 0.00 | 0.00 | 0.00 | 42 | 1019.7 |
| 20260501174051 | 53 | 259 | 1.7 | 7.0 | 0.00 | 0.00 | 0.00 | 41 | 1019.9 |
| 20260501173554 | 54 | 293 | 1.7 | 7.0 | 0.00 | 0.00 | 0.00 | 43 | 1019.8 |
| 20260501173110 | 53 | 20 | 1.7 | 6.1 | 0.00 | 0.00 | 0.00 | 42 | 1019.7 |
| 20260501172551 | 54 | 208 | 1.7 | 6.1 | 0.00 | 0.00 | 0.00 | 41 | 1019.8 |
| 20260501172051 | 54 | 360 | 1.7 | 7.0 | 0.00 | 0.00 | 0.00 | 43 | 1019.9 |
| 20260501171552 | 54 | 62 | 0.9 | 7.0 | 0.00 | 0.00 | 0.00 | 45 | 1019.8 |
| 20260501171128 | 53 | 342 | 1.7 | 7.0 | 0.00 | 0.00 | 0.00 | 44 | 1019.8 |
| 20260501170551 | 53 | 135 | 2.6 | 7.0 | 0.00 | 0.00 | 0.00 | 46 | 1019.6 |
| 20260501170101 | 53 | 309 | 1.7 | 5.2 | 0.00 | 0.00 | 0.00 | 46 | 1019.6 |
| 20260501165552 | 53 | 348 | 1.7 | 5.2 | 0.00 | 0.00 | 0.00 | 47 | 1019.5 |
| 20260501165056 | 53 | 315 | 1.7 | 6.1 | 0.00 | 0.00 | 0.00 | 47 | 1019.6 |
| 20260501164603 | 53 | 56 | 1.7 | 7.8 | 0.00 | 0.00 | 0.00 | 48 | 1019.5 |
| 20260501164054 | 53 | 26 | 2.6 | 7.8 | 0.00 | 0.00 | 0.00 | 47 | 1019.5 |
| 20260501163552 | 53 | 37 | 3.5 | 7.0 | 0.00 | 0.00 | 0.00 | 51 | 1019.4 |
| 20260501163101 | 52 | 9 | 1.7 | 5.2 | 0.00 | 0.00 | 0.00 | 55 | 1019.3 |
| 20260501162552 | 51 | 319 | 1.7 | 5.2 | 0.00 | 0.00 | 0.00 | 54 | 1019.3 |
| 20260501162051 | 51 | 341 | 1.7 | 5.2 | 0.00 | 0.00 | 0.00 | 57 | 1019.4 |
| 20260501161556 | 51 | 67 | 0.9 | 6.1 | 0.00 | 0.00 | 0.00 | 56 | 1019.3 |
| 20260501161051 | 52 | 285 | 1.7 | 7.0 | 0.00 | 0.00 | 0.00 | 55 | 1019.3 |
| 20260501160551 | 52 | 360 | 1.7 | 7.0 | 0.00 | 0.00 | 0.00 | 58 | 1019.3 |